createdAt,value
2022-08-08T00:00:56.387Z,17.34
2022-08-08T00:03:20.240Z,17.19
2022-08-08T00:06:03.509Z,17.00
2022-08-08T00:08:39.733Z,16.85
2022-08-08T00:11:18.473Z,16.87
2022-08-08T00:14:16.606Z,16.77
2022-08-08T00:17:02.414Z,16.72
2022-08-08T00:19:36.945Z,16.58
2022-08-08T00:22:13.635Z,16.53
2022-08-08T00:24:47.309Z,16.64
2022-08-08T00:27:19.056Z,16.59
2022-08-08T00:29:52.849Z,16.57
2022-08-08T00:32:35.329Z,16.55
2022-08-08T00:35:34.179Z,16.69
2022-08-08T00:38:51.592Z,16.69
2022-08-08T00:42:07.642Z,16.62
2022-08-08T00:45:05.185Z,16.51
2022-08-08T00:48:33.856Z,16.39
2022-08-08T00:51:42.207Z,16.30
2022-08-08T00:54:43.467Z,16.27
2022-08-08T00:57:40.512Z,16.30
2022-08-08T01:00:22.149Z,16.18
2022-08-08T01:04:01.459Z,16.17
2022-08-08T01:07:01.428Z,16.42
2022-08-08T01:10:01.485Z,16.34
2022-08-08T01:12:58.130Z,16.30
2022-08-08T01:15:54.652Z,16.20
2022-08-08T01:18:57.176Z,16.26
2022-08-08T01:22:13.634Z,16.21
2022-08-08T01:24:59.534Z,16.15
2022-08-08T01:27:59.290Z,16.02
2022-08-08T01:31:01.930Z,16.10
2022-08-08T01:34:04.929Z,16.08
2022-08-08T01:37:13.823Z,15.81
2022-08-08T01:40:04.416Z,15.67
2022-08-08T01:42:43.862Z,15.94
2022-08-08T01:45:33.804Z,15.87
2022-08-08T01:48:27.914Z,16.17
2022-08-08T01:51:32.421Z,16.37
2022-08-08T01:55:44.918Z,16.43
2022-08-08T01:58:12.724Z,16.50
2022-08-08T02:00:33.633Z,16.63
2022-08-08T02:03:57.123Z,16.71
2022-08-08T02:06:31.740Z,16.65
2022-08-08T02:09:17.674Z,16.38
2022-08-08T02:11:59.096Z,16.22
2022-08-08T02:14:55.595Z,16.30
2022-08-08T02:17:43.147Z,16.33
2022-08-08T02:21:02.250Z,16.42
2022-08-08T02:23:23.065Z,16.46
2022-08-08T02:26:08.008Z,16.49
2022-08-08T02:28:51.656Z,16.32
2022-08-08T02:31:59.230Z,16.27
2022-08-08T02:35:11.045Z,16.28
2022-08-08T02:38:11.284Z,16.09
2022-08-08T02:40:50.145Z,15.98
2022-08-08T02:44:38.767Z,15.88
2022-08-08T02:47:06.168Z,15.66
2022-08-08T02:49:51.948Z,15.36
2022-08-08T02:52:50.605Z,15.47
2022-08-08T02:55:59.710Z,15.55
2022-08-08T02:59:05.976Z,15.57
2022-08-08T03:02:33.146Z,15.38
2022-08-08T03:05:46.304Z,15.26
2022-08-08T03:08:44.569Z,15.21
2022-08-08T03:12:01.529Z,15.09
2022-08-08T03:15:57.398Z,15.08
2022-08-08T03:18:00.127Z,15.10
2022-08-08T03:20:47.043Z,14.94
2022-08-08T03:23:30.334Z,14.82
2022-08-08T03:26:11.854Z,15.12
2022-08-08T03:28:45.038Z,15.15
2022-08-08T03:32:07.240Z,15.24
2022-08-08T03:34:27.561Z,15.15
2022-08-08T03:36:55.671Z,15.25
2022-08-08T03:39:25.205Z,15.32
2022-08-08T03:42:27.905Z,15.33
2022-08-08T03:44:47.846Z,14.94
2022-08-08T03:47:22.768Z,14.83
2022-08-08T03:50:24.645Z,14.68
2022-08-08T03:52:55.397Z,14.77
2022-08-08T03:55:57.712Z,15.04
2022-08-08T03:58:35.648Z,15.05
2022-08-08T04:01:23.582Z,14.96
2022-08-08T04:03:59.029Z,14.91
2022-08-08T04:06:30.738Z,14.75
2022-08-08T04:09:10.470Z,14.65
2022-08-08T04:11:48.469Z,14.42
2022-08-08T04:14:50.580Z,14.32
2022-08-08T04:17:40.903Z,14.44
2022-08-08T04:20:08.502Z,14.43
2022-08-08T04:22:37.602Z,14.22
2022-08-08T04:25:08.460Z,14.40
2022-08-08T04:28:01.362Z,14.60
2022-08-08T04:30:30.056Z,14.80
2022-08-08T04:33:04.864Z,14.88
2022-08-08T04:35:39.524Z,14.80
2022-08-08T04:38:09.755Z,14.68
2022-08-08T04:40:51.528Z,14.66
2022-08-08T04:43:31.306Z,14.58
2022-08-08T04:45:59.263Z,14.45
2022-08-08T04:48:27.091Z,14.39
2022-08-08T04:50:58.838Z,14.23
2022-08-08T04:54:36.047Z,14.29
2022-08-08T04:56:20.440Z,14.51
2022-08-08T04:58:50.467Z,14.66
2022-08-08T05:01:19.760Z,14.69
2022-08-08T05:04:07.749Z,14.80
2022-08-08T05:06:40.947Z,15.02
2022-08-08T05:09:10.586Z,15.09
2022-08-08T05:11:41.580Z,15.06
2022-08-08T05:14:14.853Z,14.84
2022-08-08T05:16:55.312Z,14.87
2022-08-08T05:20:12.405Z,14.99
2022-08-08T05:22:21.027Z,14.96
2022-08-08T05:24:50.926Z,14.93
2022-08-08T05:27:22.247Z,14.99
2022-08-08T05:29:54.819Z,15.21
2022-08-08T05:32:27.362Z,15.53
2022-08-08T05:35:04.588Z,15.86
2022-08-08T05:37:53.763Z,15.96
2022-08-08T05:40:48.945Z,16.10
2022-08-08T05:43:39.951Z,16.21
2022-08-08T05:46:16.129Z,16.44
2022-08-08T05:48:52.204Z,16.54
2022-08-08T05:51:23.088Z,16.60
2022-08-08T05:54:26.957Z,16.75
2022-08-08T05:56:47.370Z,16.94
2022-08-08T06:00:00.642Z,16.99
2022-08-08T06:02:52.090Z,17.01
2022-08-08T06:05:33.615Z,17.13
2022-08-08T06:08:10.325Z,17.21
2022-08-08T06:10:57.882Z,17.26
2022-08-08T06:13:29.966Z,17.25
2022-08-08T06:16:04.554Z,17.38
2022-08-08T06:19:01.719Z,17.54
2022-08-08T06:21:51.396Z,17.72
2022-08-08T06:24:31.030Z,17.84
2022-08-08T06:27:05.716Z,17.97
2022-08-08T06:29:56.415Z,18.00
2022-08-08T06:32:31.126Z,18.07
2022-08-08T06:35:11.939Z,18.15
2022-08-08T06:38:03.102Z,18.23
2022-08-08T06:40:36.767Z,18.36
2022-08-08T06:43:10.405Z,18.56
2022-08-08T06:45:48.141Z,18.66
2022-08-08T06:48:17.173Z,18.72
2022-08-08T06:50:47.242Z,18.77
2022-08-08T06:53:20.972Z,18.83
2022-08-08T06:56:02.853Z,18.92
2022-08-08T06:58:34.807Z,19.03
2022-08-08T07:01:24.532Z,19.13
2022-08-08T07:04:38.057Z,19.14
2022-08-08T07:06:56.654Z,19.11
2022-08-08T07:09:41.926Z,19.11
2022-08-08T07:12:30.504Z,19.16
2022-08-08T07:15:05.654Z,19.10
2022-08-08T07:17:40.220Z,19.10
2022-08-08T07:20:30.734Z,19.13
2022-08-08T07:23:04.563Z,19.21
2022-08-08T07:25:39.292Z,19.37
2022-08-08T07:28:18.849Z,19.52
2022-08-08T07:30:49.379Z,19.72
2022-08-08T07:33:17.709Z,19.79
2022-08-08T07:35:48.604Z,19.90
2022-08-08T07:38:25.541Z,20.16
2022-08-08T07:41:04.658Z,20.29
2022-08-08T07:43:37.597Z,20.36
2022-08-08T07:46:23.310Z,20.51
2022-08-08T07:48:53.542Z,20.58
2022-08-08T07:51:23.149Z,20.62
2022-08-08T07:54:06.686Z,20.88
2022-08-08T07:56:47.845Z,20.97
2022-08-08T07:59:19.165Z,21.05
2022-08-08T08:02:32.858Z,21.25
2022-08-08T08:04:49.142Z,21.34
2022-08-08T08:07:31.784Z,21.50
2022-08-08T08:10:03.721Z,21.69
2022-08-08T08:12:41.415Z,21.74
2022-08-08T08:15:23.279Z,21.79
2022-08-08T08:17:58.620Z,21.89
2022-08-08T08:20:30.809Z,22.00
2022-08-08T08:23:02.213Z,22.12
2022-08-08T08:25:43.178Z,22.18
2022-08-08T08:28:24.224Z,22.38
2022-08-08T08:30:58.454Z,22.59
2022-08-08T08:33:28.171Z,22.67
2022-08-08T08:36:19.763Z,22.76
2022-08-08T08:38:49.580Z,22.93
2022-08-08T08:41:22.274Z,23.02
2022-08-08T08:43:52.640Z,23.10
2022-08-08T08:46:45.588Z,23.18
2022-08-08T08:49:19.507Z,23.30
2022-08-08T08:51:51.162Z,23.39
2022-08-08T08:54:25.329Z,23.49
2022-08-08T08:56:56.399Z,23.62
2022-08-08T08:59:59.586Z,23.75
2022-08-08T09:02:21.832Z,23.90
2022-08-08T09:05:00.158Z,24.07
2022-08-08T09:07:38.998Z,24.17
2022-08-08T09:10:20.483Z,24.27
2022-08-08T09:12:52.488Z,24.38
2022-08-08T09:15:41.455Z,24.46
2022-08-08T09:18:11.155Z,24.56
2022-08-08T09:22:05.300Z,24.71
2022-08-08T09:23:33.510Z,24.75
2022-08-08T09:26:17.021Z,24.86
2022-08-08T09:28:46.160Z,25.02
2022-08-08T09:31:42.856Z,25.09
2022-08-08T09:34:31.492Z,25.21
2022-08-08T09:37:28.760Z,25.34
2022-08-08T09:40:01.555Z,25.45
2022-08-08T09:42:44.519Z,25.59
2022-08-08T09:46:01.150Z,25.74
2022-08-08T09:48:21.081Z,25.84
2022-08-08T09:50:55.026Z,25.98
2022-08-08T09:53:53.248Z,26.13
2022-08-08T09:56:24.850Z,26.28
2022-08-08T09:58:58.368Z,26.34
2022-08-08T10:01:59.274Z,26.46
2022-08-08T10:04:42.287Z,26.64
2022-08-08T10:07:13.965Z,26.82
2022-08-08T10:09:59.431Z,26.90
2022-08-08T10:12:38.745Z,27.04
2022-08-08T10:15:21.909Z,27.23
2022-08-08T10:18:05.494Z,27.38
2022-08-08T10:20:51.409Z,27.54
2022-08-08T10:23:41.887Z,27.49
2022-08-08T10:26:30.958Z,27.69
2022-08-08T10:29:06.347Z,27.71
2022-08-08T10:31:52.817Z,27.79
2022-08-08T10:34:25.217Z,27.86
2022-08-08T10:36:56.378Z,27.88
2022-08-08T10:39:31.794Z,28.02
2022-08-08T10:42:14.737Z,28.27
2022-08-08T10:44:43.283Z,28.41
2022-08-08T10:47:12.465Z,28.47
2022-08-08T10:50:01.639Z,28.61
2022-08-08T10:52:32.716Z,28.74
2022-08-08T10:55:05.078Z,28.85
2022-08-08T10:57:50.153Z,29.02
2022-08-08T11:00:27.510Z,29.11
2022-08-08T11:02:55.927Z,29.12
2022-08-08T11:05:27.438Z,29.20
2022-08-08T11:08:31.825Z,29.35
2022-08-08T11:11:08.009Z,29.61
2022-08-08T11:13:40.132Z,29.78
2022-08-08T11:16:32.533Z,29.87
2022-08-08T11:19:02.506Z,30.03
2022-08-08T11:21:37.968Z,30.16
2022-08-08T11:24:08.438Z,30.31
2022-08-08T11:26:56.891Z,30.47
2022-08-08T11:29:41.759Z,30.51
2022-08-08T11:32:16.807Z,30.86
2022-08-08T11:35:24.938Z,31.05
2022-08-08T11:38:35.633Z,31.31
2022-08-08T11:40:31.543Z,31.24
2022-08-08T11:43:01.176Z,31.15
2022-08-08T11:45:29.728Z,31.48
2022-08-08T11:48:05.517Z,31.58
2022-08-08T11:50:37.865Z,31.83
2022-08-08T11:53:07.607Z,32.20
2022-08-08T11:55:36.757Z,32.33
2022-08-08T11:58:15.140Z,32.59
2022-08-08T12:00:47.316Z,32.78
2022-08-08T12:03:20.935Z,32.91
2022-08-08T12:05:49.312Z,33.06
2022-08-08T12:08:30.664Z,33.28
2022-08-08T12:11:01.430Z,33.56
2022-08-08T12:13:33.328Z,33.85
2022-08-08T12:16:10.852Z,33.88
2022-08-08T12:18:45.892Z,33.65
2022-08-08T12:21:58.627Z,33.80
2022-08-08T12:24:19.220Z,34.20
2022-08-08T12:26:49.943Z,34.69
2022-08-08T12:29:25.895Z,35.08
2022-08-08T12:32:13.471Z,35.16
2022-08-08T12:34:50.768Z,35.41
2022-08-08T12:37:22.908Z,35.58
2022-08-08T12:40:00.873Z,35.94
2022-08-08T12:42:33.678Z,35.94
2022-08-08T12:45:58.137Z,36.03
2022-08-08T12:48:10.290Z,36.68
2022-08-08T12:50:54.622Z,36.89
2022-08-08T12:53:30.317Z,36.89
2022-08-08T12:56:18.288Z,37.32
2022-08-08T12:58:49.137Z,38.11
2022-08-08T13:01:16.857Z,38.45
2022-08-08T13:03:52.306Z,38.89
2022-08-08T13:06:21.252Z,39.85
2022-08-08T13:08:53.609Z,40.45
2022-08-08T13:11:28.517Z,40.54
2022-08-08T13:14:15.802Z,40.87
2022-08-08T13:16:49.379Z,41.37
2022-08-08T13:19:20.210Z,41.07
2022-08-08T13:22:04.950Z,41.58
2022-08-08T13:24:42.463Z,42.20
2022-08-08T13:27:18.915Z,42.54
2022-08-08T13:29:50.497Z,42.98
2022-08-08T13:32:20.939Z,42.48
2022-08-08T13:34:53.330Z,42.79
2022-08-08T13:37:51.882Z,42.71
2022-08-08T13:40:12.303Z,42.46
2022-08-08T13:42:47.374Z,43.25
2022-08-08T13:45:24.041Z,42.86
2022-08-08T13:47:58.065Z,42.90
2022-08-08T13:50:36.437Z,43.21
2022-08-08T13:53:24.848Z,43.52
2022-08-08T13:55:59.420Z,44.37
2022-08-08T13:58:30.064Z,44.47
2022-08-08T14:00:57.805Z,44.17
2022-08-08T14:03:53.198Z,43.87
2022-08-08T14:06:32.368Z,44.12
2022-08-08T14:09:24.954Z,45.12
2022-08-08T14:11:50.128Z,45.96
2022-08-08T14:14:21.003Z,46.43
2022-08-08T14:16:53.359Z,47.13
2022-08-08T14:19:54.259Z,46.25
2022-08-08T14:22:23.160Z,45.68
2022-08-08T14:25:01.269Z,46.48
2022-08-08T14:27:33.276Z,46.74
2022-08-08T14:30:18.440Z,47.67
2022-08-08T14:32:47.745Z,48.13
2022-08-08T14:35:23.369Z,48.37
2022-08-08T14:38:00.867Z,48.69
2022-08-08T14:40:31.596Z,49.20
2022-08-08T14:43:01.833Z,50.13
2022-08-08T14:46:01.985Z,49.81
2022-08-08T14:48:40.767Z,50.62
2022-08-08T14:51:17.906Z,51.39
2022-08-08T14:53:55.518Z,51.65
2022-08-08T14:56:25.024Z,51.91
2022-08-08T14:58:54.213Z,51.33
2022-08-08T15:01:40.672Z,50.49
2022-08-08T15:04:10.480Z,50.54
2022-08-08T15:06:39.113Z,50.96
2022-08-08T15:09:10.019Z,50.19
2022-08-08T15:11:46.185Z,51.44
2022-08-08T15:14:25.177Z,51.33
2022-08-08T15:16:57.141Z,51.36
2022-08-08T15:19:28.023Z,51.72
2022-08-08T15:21:57.819Z,51.77
2022-08-08T15:24:31.323Z,52.21
2022-08-08T15:27:00.187Z,52.21
2022-08-08T15:29:47.513Z,52.50
2022-08-08T15:32:19.847Z,52.66
2022-08-08T15:34:48.688Z,52.68
2022-08-08T15:37:17.312Z,51.93
2022-08-08T15:39:48.114Z,51.93
2022-08-08T15:42:31.908Z,52.51
2022-08-08T15:45:00.894Z,52.22
2022-08-08T15:47:31.940Z,52.59
2022-08-08T15:50:00.428Z,51.06
2022-08-08T15:52:29.595Z,50.65
2022-08-08T15:54:59.093Z,51.68
2022-08-08T15:57:26.734Z,51.31
2022-08-08T16:00:18.227Z,51.67
2022-08-08T16:02:53.066Z,51.89
2022-08-08T16:05:23.792Z,52.52
2022-08-08T16:07:53.826Z,52.14
2022-08-08T16:13:15.519Z,52.99
2022-08-08T16:13:30.706Z,53.51
2022-08-08T16:16:12.818Z,53.65
2022-08-08T16:18:53.393Z,53.11
2022-08-08T16:21:27.871Z,51.46
2022-08-08T16:23:56.454Z,51.95
2022-08-08T16:26:33.743Z,52.40
2022-08-08T16:29:07.029Z,52.64
2022-08-08T16:31:37.331Z,52.48
2022-08-08T16:34:06.632Z,52.58
2022-08-08T16:36:36.560Z,52.70
2022-08-08T16:39:16.581Z,52.17
2022-08-08T16:41:54.013Z,52.08
2022-08-08T16:44:34.372Z,52.36
2022-08-08T16:47:21.782Z,52.48
2022-08-08T16:50:02.836Z,52.44
2022-08-08T16:55:04.277Z,52.14
2022-08-08T16:55:34.223Z,51.81
2022-08-08T16:58:15.645Z,52.05
2022-08-08T17:00:49.112Z,52.27
2022-08-08T17:03:24.837Z,52.53
2022-08-08T17:06:04.583Z,52.27
2022-08-08T17:08:32.264Z,52.29
2022-08-08T17:11:11.048Z,51.89
2022-08-08T17:13:41.168Z,51.58
2022-08-08T17:16:22.058Z,51.09
2022-08-08T17:18:51.884Z,51.17
2022-08-08T17:21:21.442Z,51.59
2022-08-08T17:23:58.540Z,50.90
2022-08-08T17:26:30.117Z,50.86
2022-08-08T17:28:58.445Z,50.75
2022-08-08T17:31:43.651Z,49.85
2022-08-08T17:34:47.984Z,49.60
2022-08-08T17:37:09.208Z,49.49
2022-08-08T17:40:03.283Z,49.55
2022-08-08T17:42:25.192Z,49.34
2022-08-08T17:44:53.029Z,49.26
2022-08-08T17:47:23.920Z,49.01
2022-08-08T17:49:52.981Z,48.81
2022-08-08T17:52:30.081Z,48.48
2022-08-08T17:54:58.559Z,48.32
2022-08-08T17:57:28.841Z,47.68
2022-08-08T18:00:03.723Z,46.84
2022-08-08T18:02:32.157Z,45.76
2022-08-08T18:05:04.834Z,45.33
2022-08-08T18:08:15.368Z,44.62
2022-08-08T18:10:31.513Z,44.18
2022-08-08T18:13:01.739Z,43.63
2022-08-08T18:15:31.412Z,43.19
2022-08-08T18:18:09.855Z,42.73
2022-08-08T18:20:59.181Z,41.61
2022-08-08T18:23:28.857Z,40.23
2022-08-08T18:26:01.569Z,38.59
2022-08-08T18:28:33.433Z,37.35
2022-08-08T18:31:19.454Z,36.17
2022-08-08T18:34:11.550Z,35.35
2022-08-08T18:36:36.086Z,34.48
2022-08-08T18:39:05.705Z,33.76
2022-08-08T18:41:51.823Z,33.27
2022-08-08T18:44:21.244Z,32.53
2022-08-08T18:46:58.072Z,31.88
2022-08-08T18:49:32.367Z,31.60
2022-08-08T18:52:08.805Z,31.19
2022-08-08T18:54:58.979Z,30.59
2022-08-08T18:57:32.028Z,30.34
2022-08-08T19:00:10.624Z,29.72
2022-08-08T19:02:48.505Z,29.49
2022-08-08T19:05:24.153Z,28.92
2022-08-08T19:07:58.482Z,28.53
2022-08-08T19:10:29.266Z,28.15
2022-08-08T19:12:57.784Z,27.90
2022-08-08T19:15:33.924Z,27.66
2022-08-08T19:18:33.390Z,27.45
2022-08-08T19:20:50.414Z,27.24
2022-08-08T19:23:18.275Z,27.03
2022-08-08T19:26:01.702Z,26.85
2022-08-08T19:28:41.423Z,26.60
2022-08-08T19:31:10.021Z,26.58
2022-08-08T19:34:04.908Z,26.43
2022-08-08T19:36:28.551Z,26.21
2022-08-08T19:38:56.639Z,26.05
2022-08-08T19:41:29.611Z,25.91
2022-08-08T19:44:02.945Z,25.73
2022-08-08T19:46:33.370Z,25.64
2022-08-08T19:49:03.039Z,25.41
2022-08-08T19:51:34.924Z,25.27
2022-08-08T19:54:09.054Z,25.06
2022-08-08T19:56:40.867Z,24.91
2022-08-08T19:59:10.013Z,24.74
2022-08-08T20:02:02.638Z,24.59
2022-08-08T20:04:25.970Z,24.38
2022-08-08T20:06:54.001Z,24.28
2022-08-08T20:09:25.009Z,24.15
2022-08-08T20:11:53.980Z,24.07
2022-08-08T20:14:33.474Z,23.97
2022-08-08T20:17:03.061Z,23.81
2022-08-08T20:19:34.516Z,23.67
2022-08-08T20:22:20.917Z,23.61
2022-08-08T20:24:57.948Z,23.53
2022-08-08T20:27:43.861Z,23.44
2022-08-08T20:30:52.757Z,23.40
2022-08-08T20:33:18.442Z,23.32
2022-08-08T20:35:57.211Z,23.21
2022-08-08T20:38:29.158Z,23.11
2022-08-08T20:41:00.138Z,23.05
2022-08-08T20:43:44.290Z,22.95
2022-08-08T20:46:17.202Z,22.81
2022-08-08T20:48:45.082Z,22.74
2022-08-08T20:51:12.789Z,22.66
2022-08-08T20:54:00.960Z,22.63
2022-08-08T20:56:35.502Z,22.54
2022-08-08T20:59:21.119Z,22.52
2022-08-08T21:02:06.344Z,22.44
2022-08-08T21:04:37.141Z,22.39
2022-08-08T21:07:13.858Z,22.30
2022-08-08T21:10:01.429Z,22.14
2022-08-08T21:12:35.442Z,21.93
2022-08-08T21:15:06.526Z,21.90
2022-08-08T21:17:36.697Z,21.85
2022-08-08T21:20:05.796Z,21.80
2022-08-08T21:22:33.612Z,21.79
2022-08-08T21:25:02.139Z,21.72
2022-08-08T21:28:05.152Z,21.77
2022-08-08T21:30:22.114Z,21.75
2022-08-08T21:32:53.352Z,21.75
2022-08-08T21:36:14.202Z,21.67
2022-08-08T21:38:16.721Z,21.55
2022-08-08T21:40:55.158Z,21.46
2022-08-08T21:43:24.699Z,21.32
2022-08-08T21:48:06.371Z,21.21
2022-08-08T21:48:44.605Z,21.21
2022-08-08T21:51:20.318Z,21.18
2022-08-08T21:54:23.304Z,21.09
2022-08-08T21:56:53.074Z,20.99
2022-08-08T21:59:20.865Z,20.91
2022-08-08T22:01:52.346Z,20.82
2022-08-08T22:04:24.691Z,20.70
2022-08-08T22:06:53.899Z,20.63
2022-08-08T22:09:27.031Z,20.53
2022-08-08T22:12:09.828Z,20.53
2022-08-08T22:14:42.748Z,20.57
2022-08-08T22:17:11.869Z,20.50
2022-08-08T22:20:12.700Z,20.47
2022-08-08T22:22:31.562Z,20.34
2022-08-08T22:25:12.325Z,20.23
2022-08-08T22:28:02.925Z,20.10
2022-08-08T22:30:33.460Z,19.95
2022-08-08T22:33:03.444Z,19.92
2022-08-08T22:36:04.656Z,19.98
2022-08-08T22:38:39.423Z,19.96
2022-08-08T22:41:21.024Z,20.07
2022-08-08T22:44:05.831Z,20.07
2022-08-08T22:46:38.939Z,20.07
2022-08-08T22:49:09.948Z,20.13
2022-08-08T22:51:42.769Z,20.08
2022-08-08T22:54:30.028Z,20.11
2022-08-08T22:57:08.662Z,20.14
2022-08-08T22:59:48.350Z,20.13
2022-08-08T23:02:28.509Z,20.04
2022-08-08T23:04:57.800Z,19.97
2022-08-08T23:07:51.370Z,19.93
2022-08-08T23:10:19.716Z,19.94
2022-08-08T23:12:48.899Z,19.98
2022-08-08T23:16:41.108Z,19.87
2022-08-08T23:18:11.975Z,19.85
2022-08-08T23:20:43.187Z,19.75
2022-08-08T23:23:12.758Z,19.19
2022-08-08T23:25:45.254Z,19.32
2022-08-08T23:28:17.715Z,19.35
2022-08-08T23:30:45.996Z,19.18
2022-08-08T23:33:21.181Z,18.96
2022-08-08T23:36:07.839Z,19.13
2022-08-08T23:38:44.186Z,19.20
2022-08-08T23:41:22.883Z,19.27
2022-08-08T23:43:56.251Z,19.35
2022-08-08T23:49:08.355Z,19.18
2022-08-08T23:49:15.140Z,19.11
2022-08-08T23:52:07.254Z,19.09
2022-08-08T23:54:41.829Z,18.97
2022-08-08T23:57:25.481Z,18.95
2022-08-08T23:59:55.605Z,18.95
